sensor_id;sensor_type;location;lat;lon;timestamp;P1;durP1;ratioP1;P2;durP2;ratioP2
18505;SDS011;9382;53.242;10.438;2023-04-16T00:01:24;59.27;;;30.63;;
18505;SDS011;9382;53.242;10.438;2023-04-16T00:03:51;54.23;;;29.43;;
18505;SDS011;9382;53.242;10.438;2023-04-16T00:06:19;53.07;;;29.20;;
18505;SDS011;9382;53.242;10.438;2023-04-16T00:08:45;52.37;;;28.87;;
18505;SDS011;9382;53.242;10.438;2023-04-16T00:11:14;53.63;;;28.20;;
18505;SDS011;9382;53.242;10.438;2023-04-16T00:13:40;49.30;;;28.23;;
18505;SDS011;9382;53.242;10.438;2023-04-16T00:16:07;53.43;;;29.33;;
18505;SDS011;9382;53.242;10.438;2023-04-16T00:18:34;50.37;;;28.10;;
18505;SDS011;9382;53.242;10.438;2023-04-16T00:21:01;54.47;;;30.53;;
18505;SDS011;9382;53.242;10.438;2023-04-16T00:23:27;58.53;;;30.70;;
18505;SDS011;9382;53.242;10.438;2023-04-16T00:25:54;51.27;;;29.73;;
18505;SDS011;9382;53.242;10.438;2023-04-16T00:28:25;57.17;;;31.13;;
18505;SDS011;9382;53.242;10.438;2023-04-16T00:30:52;59.33;;;31.97;;
18505;SDS011;9382;53.242;10.438;2023-04-16T00:33:19;62.30;;;32.17;;
18505;SDS011;9382;53.242;10.438;2023-04-16T00:35:46;56.70;;;31.03;;
18505;SDS011;9382;53.242;10.438;2023-04-16T00:38:13;62.37;;;32.10;;
18505;SDS011;9382;53.242;10.438;2023-04-16T00:40:40;59.47;;;32.07;;
18505;SDS011;9382;53.242;10.438;2023-04-16T00:43:06;55.17;;;30.50;;
18505;SDS011;9382;53.242;10.438;2023-04-16T00:45:34;58.30;;;30.77;;
18505;SDS011;9382;53.242;10.438;2023-04-16T00:48:02;59.90;;;31.33;;
18505;SDS011;9382;53.242;10.438;2023-04-16T00:50:29;52.53;;;29.97;;
18505;SDS011;9382;53.242;10.438;2023-04-16T00:52:56;59.17;;;30.50;;
18505;SDS011;9382;53.242;10.438;2023-04-16T00:55:23;55.63;;;29.37;;
18505;SDS011;9382;53.242;10.438;2023-04-16T00:57:50;59.07;;;31.10;;
18505;SDS011;9382;53.242;10.438;2023-04-16T01:00:16;54.00;;;30.37;;
18505;SDS011;9382;53.242;10.438;2023-04-16T01:02:44;60.00;;;30.83;;
18505;SDS011;9382;53.242;10.438;2023-04-16T01:05:11;61.33;;;29.93;;
18505;SDS011;9382;53.242;10.438;2023-04-16T01:07:38;55.93;;;29.90;;
18505;SDS011;9382;53.242;10.438;2023-04-16T01:10:05;58.13;;;30.37;;
18505;SDS011;9382;53.242;10.438;2023-04-16T01:12:32;56.27;;;30.53;;
18505;SDS011;9382;53.242;10.438;2023-04-16T01:14:59;54.37;;;29.07;;
18505;SDS011;9382;53.242;10.438;2023-04-16T01:17:26;57.33;;;29.47;;
18505;SDS011;9382;53.242;10.438;2023-04-16T01:19:54;60.47;;;31.00;;
18505;SDS011;9382;53.242;10.438;2023-04-16T01:22:25;57.13;;;29.90;;
18505;SDS011;9382;53.242;10.438;2023-04-16T01:24:52;60.87;;;30.20;;
18505;SDS011;9382;53.242;10.438;2023-04-16T01:27:18;54.73;;;28.23;;
18505;SDS011;9382;53.242;10.438;2023-04-16T01:29:45;52.93;;;29.00;;
18505;SDS011;9382;53.242;10.438;2023-04-16T01:32:12;52.57;;;29.10;;
18505;SDS011;9382;53.242;10.438;2023-04-16T01:34:39;60.50;;;29.37;;
18505;SDS011;9382;53.242;10.438;2023-04-16T01:37:05;53.97;;;28.80;;
18505;SDS011;9382;53.242;10.438;2023-04-16T01:39:33;55.17;;;28.90;;
18505;SDS011;9382;53.242;10.438;2023-04-16T01:42:00;53.90;;;28.60;;
18505;SDS011;9382;53.242;10.438;2023-04-16T01:44:27;48.87;;;27.77;;
18505;SDS011;9382;53.242;10.438;2023-04-16T01:46:55;53.03;;;28.07;;
18505;SDS011;9382;53.242;10.438;2023-04-16T01:49:21;54.93;;;27.80;;
18505;SDS011;9382;53.242;10.438;2023-04-16T01:51:48;52.60;;;27.57;;
18505;SDS011;9382;53.242;10.438;2023-04-16T01:54:15;48.07;;;26.20;;
18505;SDS011;9382;53.242;10.438;2023-04-16T01:56:43;47.17;;;25.37;;
18505;SDS011;9382;53.242;10.438;2023-04-16T01:59:10;49.93;;;26.30;;
18505;SDS011;9382;53.242;10.438;2023-04-16T02:01:37;49.63;;;26.07;;
18505;SDS011;9382;53.242;10.438;2023-04-16T02:04:04;46.37;;;24.83;;
18505;SDS011;9382;53.242;10.438;2023-04-16T02:06:32;45.97;;;24.50;;
18505;SDS011;9382;53.242;10.438;2023-04-16T02:08:58;42.67;;;24.53;;
18505;SDS011;9382;53.242;10.438;2023-04-16T02:11:25;45.63;;;25.17;;
18505;SDS011;9382;53.242;10.438;2023-04-16T02:13:53;46.60;;;25.00;;
18505;SDS011;9382;53.242;10.438;2023-04-16T02:16:20;41.03;;;23.60;;
18505;SDS011;9382;53.242;10.438;2023-04-16T02:18:47;38.90;;;23.13;;
18505;SDS011;9382;53.242;10.438;2023-04-16T02:21:13;44.03;;;25.10;;
18505;SDS011;9382;53.242;10.438;2023-04-16T02:23:40;45.27;;;22.93;;
18505;SDS011;9382;53.242;10.438;2023-04-16T02:26:09;42.50;;;24.17;;
18505;SDS011;9382;53.242;10.438;2023-04-16T02:28:37;47.90;;;24.43;;
18505;SDS011;9382;53.242;10.438;2023-04-16T02:31:06;42.93;;;22.80;;
18505;SDS011;9382;53.242;10.438;2023-04-16T02:33:32;41.67;;;22.97;;
18505;SDS011;9382;53.242;10.438;2023-04-16T02:35:59;40.27;;;22.70;;
18505;SDS011;9382;53.242;10.438;2023-04-16T02:38:27;36.87;;;22.23;;
18505;SDS011;9382;53.242;10.438;2023-04-16T02:40:53;43.20;;;22.27;;
18505;SDS011;9382;53.242;10.438;2023-04-16T02:43:20;44.30;;;22.50;;
18505;SDS011;9382;53.242;10.438;2023-04-16T02:45:47;41.50;;;22.57;;
18505;SDS011;9382;53.242;10.438;2023-04-16T02:48:15;43.33;;;22.40;;
18505;SDS011;9382;53.242;10.438;2023-04-16T02:50:42;36.07;;;21.73;;
18505;SDS011;9382;53.242;10.438;2023-04-16T02:53:08;40.37;;;22.33;;
18505;SDS011;9382;53.242;10.438;2023-04-16T02:55:35;37.73;;;21.83;;
18505;SDS011;9382;53.242;10.438;2023-04-16T02:58:02;41.20;;;21.50;;
18505;SDS011;9382;53.242;10.438;2023-04-16T03:00:28;41.30;;;22.23;;
18505;SDS011;9382;53.242;10.438;2023-04-16T03:02:55;39.70;;;21.23;;
18505;SDS011;9382;53.242;10.438;2023-04-16T03:05:23;38.93;;;20.20;;
18505;SDS011;9382;53.242;10.438;2023-04-16T03:07:50;36.83;;;20.30;;
18505;SDS011;9382;53.242;10.438;2023-04-16T03:10:20;37.03;;;20.93;;
18505;SDS011;9382;53.242;10.438;2023-04-16T03:12:47;36.13;;;21.00;;
18505;SDS011;9382;53.242;10.438;2023-04-16T03:15:14;38.40;;;20.70;;
18505;SDS011;9382;53.242;10.438;2023-04-16T03:17:41;35.60;;;20.17;;
18505;SDS011;9382;53.242;10.438;2023-04-16T03:20:08;40.07;;;21.13;;
18505;SDS011;9382;53.242;10.438;2023-04-16T03:22:36;38.37;;;21.47;;
18505;SDS011;9382;53.242;10.438;2023-04-16T03:25:03;38.93;;;21.10;;
18505;SDS011;9382;53.242;10.438;2023-04-16T03:27:31;38.00;;;20.57;;
18505;SDS011;9382;53.242;10.438;2023-04-16T03:29:57;36.90;;;20.00;;
18505;SDS011;9382;53.242;10.438;2023-04-16T03:32:24;34.23;;;20.20;;
18505;SDS011;9382;53.242;10.438;2023-04-16T03:34:51;37.67;;;20.13;;
18505;SDS011;9382;53.242;10.438;2023-04-16T03:37:18;41.47;;;20.77;;
18505;SDS011;9382;53.242;10.438;2023-04-16T03:39:46;37.70;;;20.60;;
18505;SDS011;9382;53.242;10.438;2023-04-16T03:42:12;37.83;;;19.13;;
18505;SDS011;9382;53.242;10.438;2023-04-16T03:44:39;33.20;;;19.03;;
18505;SDS011;9382;53.242;10.438;2023-04-16T03:47:06;35.73;;;20.03;;
18505;SDS011;9382;53.242;10.438;2023-04-16T03:49:33;36.07;;;19.53;;
18505;SDS011;9382;53.242;10.438;2023-04-16T03:51:59;33.37;;;19.43;;
18505;SDS011;9382;53.242;10.438;2023-04-16T03:54:26;33.83;;;19.00;;
18505;SDS011;9382;53.242;10.438;2023-04-16T03:56:54;34.40;;;19.20;;
18505;SDS011;9382;53.242;10.438;2023-04-16T03:59:22;37.50;;;20.13;;
18505;SDS011;9382;53.242;10.438;2023-04-16T04:01:48;37.00;;;20.20;;
18505;SDS011;9382;53.242;10.438;2023-04-16T04:04:15;33.03;;;19.00;;
18505;SDS011;9382;53.242;10.438;2023-04-16T04:06:43;36.13;;;19.57;;
18505;SDS011;9382;53.242;10.438;2023-04-16T04:09:10;32.10;;;18.17;;
18505;SDS011;9382;53.242;10.438;2023-04-16T04:11:37;36.07;;;20.43;;
18505;SDS011;9382;53.242;10.438;2023-04-16T04:14:05;35.73;;;20.30;;
18505;SDS011;9382;53.242;10.438;2023-04-16T04:16:32;33.53;;;19.13;;
18505;SDS011;9382;53.242;10.438;2023-04-16T04:18:58;34.37;;;19.17;;
18505;SDS011;9382;53.242;10.438;2023-04-16T04:21:25;34.37;;;18.97;;
18505;SDS011;9382;53.242;10.438;2023-04-16T04:23:53;35.27;;;19.87;;
18505;SDS011;9382;53.242;10.438;2023-04-16T04:26:19;34.67;;;18.57;;
18505;SDS011;9382;53.242;10.438;2023-04-16T04:28:46;34.93;;;19.40;;
18505;SDS011;9382;53.242;10.438;2023-04-16T04:31:14;32.50;;;19.00;;
18505;SDS011;9382;53.242;10.438;2023-04-16T04:33:41;36.43;;;18.70;;
18505;SDS011;9382;53.242;10.438;2023-04-16T04:36:08;34.90;;;19.27;;
18505;SDS011;9382;53.242;10.438;2023-04-16T04:38:35;34.27;;;19.33;;
18505;SDS011;9382;53.242;10.438;2023-04-16T04:41:01;33.43;;;19.37;;
18505;SDS011;9382;53.242;10.438;2023-04-16T04:43:28;32.03;;;18.70;;
18505;SDS011;9382;53.242;10.438;2023-04-16T04:45:55;34.93;;;19.30;;
18505;SDS011;9382;53.242;10.438;2023-04-16T04:48:23;34.13;;;19.83;;
18505;SDS011;9382;53.242;10.438;2023-04-16T04:50:50;31.03;;;18.17;;
18505;SDS011;9382;53.242;10.438;2023-04-16T04:53:18;33.53;;;18.23;;
18505;SDS011;9382;53.242;10.438;2023-04-16T04:55:45;33.07;;;18.50;;
18505;SDS011;9382;53.242;10.438;2023-04-16T04:58:11;34.97;;;18.57;;
18505;SDS011;9382;53.242;10.438;2023-04-16T05:00:38;33.80;;;18.50;;
18505;SDS011;9382;53.242;10.438;2023-04-16T05:03:08;34.40;;;19.20;;
18505;SDS011;9382;53.242;10.438;2023-04-16T05:05:37;31.77;;;18.50;;
18505;SDS011;9382;53.242;10.438;2023-04-16T05:08:04;35.33;;;19.20;;
18505;SDS011;9382;53.242;10.438;2023-04-16T05:10:31;34.23;;;19.00;;
18505;SDS011;9382;53.242;10.438;2023-04-16T05:12:58;33.60;;;19.37;;
18505;SDS011;9382;53.242;10.438;2023-04-16T05:15:24;30.40;;;18.33;;
18505;SDS011;9382;53.242;10.438;2023-04-16T05:17:51;36.30;;;19.03;;
18505;SDS011;9382;53.242;10.438;2023-04-16T05:20:20;34.43;;;19.53;;
18505;SDS011;9382;53.242;10.438;2023-04-16T05:22:49;34.97;;;19.00;;
18505;SDS011;9382;53.242;10.438;2023-04-16T05:25:16;37.03;;;19.70;;
18505;SDS011;9382;53.242;10.438;2023-04-16T05:27:42;31.67;;;18.07;;
18505;SDS011;9382;53.242;10.438;2023-04-16T05:30:09;31.20;;;18.60;;
18505;SDS011;9382;53.242;10.438;2023-04-16T05:32:37;35.90;;;18.70;;
18505;SDS011;9382;53.242;10.438;2023-04-16T05:35:04;33.80;;;18.77;;
18505;SDS011;9382;53.242;10.438;2023-04-16T05:37:32;30.17;;;18.27;;
18505;SDS011;9382;53.242;10.438;2023-04-16T05:40:00;28.43;;;17.90;;
18505;SDS011;9382;53.242;10.438;2023-04-16T05:42:26;32.37;;;18.43;;
18505;SDS011;9382;53.242;10.438;2023-04-16T05:44:53;35.50;;;18.57;;
18505;SDS011;9382;53.242;10.438;2023-04-16T05:47:20;29.03;;;18.37;;
18505;SDS011;9382;53.242;10.438;2023-04-16T05:49:47;34.17;;;18.93;;
18505;SDS011;9382;53.242;10.438;2023-04-16T05:52:13;34.53;;;19.23;;
18505;SDS011;9382;53.242;10.438;2023-04-16T05:54:40;34.30;;;18.97;;
18505;SDS011;9382;53.242;10.438;2023-04-16T05:57:08;32.17;;;18.30;;
18505;SDS011;9382;53.242;10.438;2023-04-16T05:59:35;32.50;;;18.60;;
18505;SDS011;9382;53.242;10.438;2023-04-16T06:02:02;28.93;;;18.20;;
18505;SDS011;9382;53.242;10.438;2023-04-16T06:04:29;32.67;;;18.73;;
18505;SDS011;9382;53.242;10.438;2023-04-16T06:06:55;33.27;;;18.43;;
18505;SDS011;9382;53.242;10.438;2023-04-16T06:09:22;33.67;;;17.87;;
18505;SDS011;9382;53.242;10.438;2023-04-16T06:11:49;31.53;;;17.70;;
18505;SDS011;9382;53.242;10.438;2023-04-16T06:14:17;30.40;;;19.10;;
18505;SDS011;9382;53.242;10.438;2023-04-16T06:16:44;32.13;;;17.93;;
18505;SDS011;9382;53.242;10.438;2023-04-16T06:19:11;33.03;;;18.33;;
18505;SDS011;9382;53.242;10.438;2023-04-16T06:21:38;34.23;;;19.20;;
18505;SDS011;9382;53.242;10.438;2023-04-16T06:24:04;31.60;;;18.63;;
18505;SDS011;9382;53.242;10.438;2023-04-16T06:26:31;32.33;;;19.07;;
18505;SDS011;9382;53.242;10.438;2023-04-16T06:28:58;30.03;;;18.17;;
18505;SDS011;9382;53.242;10.438;2023-04-16T06:31:26;32.63;;;18.53;;
18505;SDS011;9382;53.242;10.438;2023-04-16T06:33:53;36.37;;;18.93;;
18505;SDS011;9382;53.242;10.438;2023-04-16T06:36:20;33.90;;;18.67;;
18505;SDS011;9382;53.242;10.438;2023-04-16T06:38:47;34.53;;;18.53;;
18505;SDS011;9382;53.242;10.438;2023-04-16T06:41:13;31.60;;;19.53;;
18505;SDS011;9382;53.242;10.438;2023-04-16T06:43:40;36.57;;;19.60;;
18505;SDS011;9382;53.242;10.438;2023-04-16T06:46:07;35.70;;;20.30;;
18505;SDS011;9382;53.242;10.438;2023-04-16T06:48:35;34.10;;;20.10;;
18505;SDS011;9382;53.242;10.438;2023-04-16T06:51:02;32.07;;;19.77;;
18505;SDS011;9382;53.242;10.438;2023-04-16T06:53:29;33.97;;;19.77;;
18505;SDS011;9382;53.242;10.438;2023-04-16T06:55:55;34.40;;;19.50;;
18505;SDS011;9382;53.242;10.438;2023-04-16T06:58:22;35.77;;;19.53;;
18505;SDS011;9382;53.242;10.438;2023-04-16T07:00:49;37.67;;;20.40;;
18505;SDS011;9382;53.242;10.438;2023-04-16T07:03:16;35.80;;;20.40;;
18505;SDS011;9382;53.242;10.438;2023-04-16T07:05:44;35.77;;;19.67;;
18505;SDS011;9382;53.242;10.438;2023-04-16T07:08:10;35.93;;;19.63;;
18505;SDS011;9382;53.242;10.438;2023-04-16T07:10:37;36.33;;;19.93;;
18505;SDS011;9382;53.242;10.438;2023-04-16T07:13:04;33.77;;;20.83;;
18505;SDS011;9382;53.242;10.438;2023-04-16T07:15:31;35.27;;;19.70;;
18505;SDS011;9382;53.242;10.438;2023-04-16T07:17:57;39.57;;;20.20;;
18505;SDS011;9382;53.242;10.438;2023-04-16T07:20:24;37.27;;;19.80;;
18505;SDS011;9382;53.242;10.438;2023-04-16T07:22:52;33.93;;;19.50;;
18505;SDS011;9382;53.242;10.438;2023-04-16T07:25:19;34.70;;;19.57;;
18505;SDS011;9382;53.242;10.438;2023-04-16T07:27:46;39.67;;;21.13;;
18505;SDS011;9382;53.242;10.438;2023-04-16T07:30:13;34.87;;;20.00;;
18505;SDS011;9382;53.242;10.438;2023-04-16T07:32:40;29.00;;;18.07;;
18505;SDS011;9382;53.242;10.438;2023-04-16T07:35:07;33.57;;;18.97;;
18505;SDS011;9382;53.242;10.438;2023-04-16T07:37:34;31.20;;;19.10;;
18505;SDS011;9382;53.242;10.438;2023-04-16T07:40:02;32.13;;;18.63;;
18505;SDS011;9382;53.242;10.438;2023-04-16T07:42:29;30.20;;;17.43;;
18505;SDS011;9382;53.242;10.438;2023-04-16T07:44:56;34.73;;;18.23;;
18505;SDS011;9382;53.242;10.438;2023-04-16T07:47:22;31.37;;;17.70;;
18505;SDS011;9382;53.242;10.438;2023-04-16T07:49:50;35.00;;;17.80;;
18505;SDS011;9382;53.242;10.438;2023-04-16T07:52:17;30.53;;;17.40;;
18505;SDS011;9382;53.242;10.438;2023-04-16T07:54:44;29.80;;;17.53;;
18505;SDS011;9382;53.242;10.438;2023-04-16T07:57:12;29.37;;;17.13;;
18505;SDS011;9382;53.242;10.438;2023-04-16T07:59:40;30.27;;;17.07;;
18505;SDS011;9382;53.242;10.438;2023-04-16T08:02:07;30.27;;;17.40;;
18505;SDS011;9382;53.242;10.438;2023-04-16T08:04:35;26.17;;;16.43;;
18505;SDS011;9382;53.242;10.438;2023-04-16T08:07:02;27.70;;;16.40;;
18505;SDS011;9382;53.242;10.438;2023-04-16T08:09:28;29.73;;;15.73;;
18505;SDS011;9382;53.242;10.438;2023-04-16T08:11:55;27.47;;;17.00;;
18505;SDS011;9382;53.242;10.438;2023-04-16T08:14:23;26.70;;;16.80;;
18505;SDS011;9382;53.242;10.438;2023-04-16T08:16:50;26.07;;;15.53;;
18505;SDS011;9382;53.242;10.438;2023-04-16T08:19:17;25.10;;;15.03;;
18505;SDS011;9382;53.242;10.438;2023-04-16T08:21:43;26.10;;;14.93;;
18505;SDS011;9382;53.242;10.438;2023-04-16T08:24:10;27.57;;;15.43;;
18505;SDS011;9382;53.242;10.438;2023-04-16T08:26:37;27.13;;;15.20;;
18505;SDS011;9382;53.242;10.438;2023-04-16T08:29:04;30.30;;;16.23;;
18505;SDS011;9382;53.242;10.438;2023-04-16T08:31:32;29.97;;;15.77;;
18505;SDS011;9382;53.242;10.438;2023-04-16T08:33:59;31.40;;;16.83;;
18505;SDS011;9382;53.242;10.438;2023-04-16T08:36:26;27.07;;;15.67;;
18505;SDS011;9382;53.242;10.438;2023-04-16T08:38:53;24.63;;;14.63;;
18505;SDS011;9382;53.242;10.438;2023-04-16T08:41:20;25.53;;;14.93;;
18505;SDS011;9382;53.242;10.438;2023-04-16T08:43:49;26.00;;;15.33;;
18505;SDS011;9382;53.242;10.438;2023-04-16T08:46:19;25.47;;;15.27;;
18505;SDS011;9382;53.242;10.438;2023-04-16T08:48:51;25.77;;;15.30;;
18505;SDS011;9382;53.242;10.438;2023-04-16T08:51:19;26.33;;;14.50;;
18505;SDS011;9382;53.242;10.438;2023-04-16T08:53:50;25.27;;;14.80;;
18505;SDS011;9382;53.242;10.438;2023-04-16T08:56:19;24.60;;;15.13;;
18505;SDS011;9382;53.242;10.438;2023-04-16T08:58:48;26.10;;;14.77;;
18505;SDS011;9382;53.242;10.438;2023-04-16T09:01:16;27.57;;;15.63;;
18505;SDS011;9382;53.242;10.438;2023-04-16T09:03:44;25.27;;;14.70;;
18505;SDS011;9382;53.242;10.438;2023-04-16T09:06:14;25.53;;;14.97;;
18505;SDS011;9382;53.242;10.438;2023-04-16T09:08:42;25.23;;;14.80;;
18505;SDS011;9382;53.242;10.438;2023-04-16T09:11:09;23.90;;;14.47;;
18505;SDS011;9382;53.242;10.438;2023-04-16T09:13:37;27.13;;;15.00;;
18505;SDS011;9382;53.242;10.438;2023-04-16T09:16:04;26.73;;;15.80;;
18505;SDS011;9382;53.242;10.438;2023-04-16T09:18:32;23.60;;;15.13;;
18505;SDS011;9382;53.242;10.438;2023-04-16T09:20:59;25.93;;;15.67;;
18505;SDS011;9382;53.242;10.438;2023-04-16T09:23:28;26.80;;;15.80;;
18505;SDS011;9382;53.242;10.438;2023-04-16T09:25:55;24.90;;;15.20;;
18505;SDS011;9382;53.242;10.438;2023-04-16T09:28:37;25.33;;;15.00;;
18505;SDS011;9382;53.242;10.438;2023-04-16T09:31:08;29.13;;;15.73;;
18505;SDS011;9382;53.242;10.438;2023-04-16T09:33:36;23.93;;;14.83;;
18505;SDS011;9382;53.242;10.438;2023-04-16T09:36:03;25.43;;;15.03;;
18505;SDS011;9382;53.242;10.438;2023-04-16T09:38:48;24.27;;;15.77;;
18505;SDS011;9382;53.242;10.438;2023-04-16T09:41:16;23.97;;;14.40;;
18505;SDS011;9382;53.242;10.438;2023-04-16T09:43:52;25.27;;;15.23;;
18505;SDS011;9382;53.242;10.438;2023-04-16T09:46:21;27.90;;;15.87;;
18505;SDS011;9382;53.242;10.438;2023-04-16T09:48:48;22.70;;;14.90;;
18505;SDS011;9382;53.242;10.438;2023-04-16T09:51:14;27.33;;;15.20;;
18505;SDS011;9382;53.242;10.438;2023-04-16T09:53:41;24.87;;;14.93;;
18505;SDS011;9382;53.242;10.438;2023-04-16T09:56:10;23.13;;;14.80;;
18505;SDS011;9382;53.242;10.438;2023-04-16T09:58:37;20.77;;;13.37;;
18505;SDS011;9382;53.242;10.438;2023-04-16T10:01:07;26.77;;;13.73;;
18505;SDS011;9382;53.242;10.438;2023-04-16T10:03:35;25.30;;;15.30;;
18505;SDS011;9382;53.242;10.438;2023-04-16T10:06:15;24.07;;;14.30;;
18505;SDS011;9382;53.242;10.438;2023-04-16T10:08:43;23.57;;;13.67;;
18505;SDS011;9382;53.242;10.438;2023-04-16T10:11:13;26.37;;;14.37;;
18505;SDS011;9382;53.242;10.438;2023-04-16T10:13:40;25.97;;;13.90;;
18505;SDS011;9382;53.242;10.438;2023-04-16T10:16:07;22.97;;;14.47;;
18505;SDS011;9382;53.242;10.438;2023-04-16T10:18:35;27.57;;;14.37;;
18505;SDS011;9382;53.242;10.438;2023-04-16T10:21:03;26.33;;;14.70;;
18505;SDS011;9382;53.242;10.438;2023-04-16T10:23:30;23.40;;;14.10;;
18505;SDS011;9382;53.242;10.438;2023-04-16T10:25:57;23.93;;;14.63;;
18505;SDS011;9382;53.242;10.438;2023-04-16T10:28:27;23.97;;;13.83;;
18505;SDS011;9382;53.242;10.438;2023-04-16T10:30:54;24.47;;;14.07;;
18505;SDS011;9382;53.242;10.438;2023-04-16T10:33:23;24.03;;;14.20;;
18505;SDS011;9382;53.242;10.438;2023-04-16T10:35:52;23.53;;;14.30;;
18505;SDS011;9382;53.242;10.438;2023-04-16T10:38:32;28.17;;;14.77;;
18505;SDS011;9382;53.242;10.438;2023-04-16T10:41:00;28.93;;;14.47;;
18505;SDS011;9382;53.242;10.438;2023-04-16T10:43:30;22.83;;;13.03;;
18505;SDS011;9382;53.242;10.438;2023-04-16T10:46:06;21.37;;;13.27;;
18505;SDS011;9382;53.242;10.438;2023-04-16T10:48:43;21.73;;;13.47;;
18505;SDS011;9382;53.242;10.438;2023-04-16T10:51:21;23.23;;;13.60;;
18505;SDS011;9382;53.242;10.438;2023-04-16T10:53:49;21.73;;;12.43;;
18505;SDS011;9382;53.242;10.438;2023-04-16T10:56:21;21.13;;;12.30;;
18505;SDS011;9382;53.242;10.438;2023-04-16T10:58:50;19.60;;;12.40;;
18505;SDS011;9382;53.242;10.438;2023-04-16T11:01:18;21.73;;;12.90;;
18505;SDS011;9382;53.242;10.438;2023-04-16T11:03:54;21.83;;;12.53;;
18505;SDS011;9382;53.242;10.438;2023-04-16T11:06:23;23.53;;;12.60;;
18505;SDS011;9382;53.242;10.438;2023-04-16T11:08:51;24.23;;;12.90;;
18505;SDS011;9382;53.242;10.438;2023-04-16T11:11:20;21.67;;;12.10;;
18505;SDS011;9382;53.242;10.438;2023-04-16T11:13:47;19.90;;;12.03;;
18505;SDS011;9382;53.242;10.438;2023-04-16T11:16:19;19.37;;;11.23;;
18505;SDS011;9382;53.242;10.438;2023-04-16T11:18:46;16.57;;;10.70;;
18505;SDS011;9382;53.242;10.438;2023-04-16T11:21:13;19.57;;;11.70;;
18505;SDS011;9382;53.242;10.438;2023-04-16T11:23:46;18.97;;;11.37;;
18505;SDS011;9382;53.242;10.438;2023-04-16T11:26:21;19.30;;;10.97;;
18505;SDS011;9382;53.242;10.438;2023-04-16T11:28:50;17.20;;;10.43;;
18505;SDS011;9382;53.242;10.438;2023-04-16T11:31:18;17.23;;;10.47;;
18505;SDS011;9382;53.242;10.438;2023-04-16T11:33:44;16.73;;;10.40;;
18505;SDS011;9382;53.242;10.438;2023-04-16T11:36:11;17.17;;;10.63;;
18505;SDS011;9382;53.242;10.438;2023-04-16T11:38:38;16.37;;;10.20;;
18505;SDS011;9382;53.242;10.438;2023-04-16T11:41:06;17.43;;;10.00;;
18505;SDS011;9382;53.242;10.438;2023-04-16T11:43:33;18.97;;;10.40;;
18505;SDS011;9382;53.242;10.438;2023-04-16T11:46:02;17.60;;;10.63;;
18505;SDS011;9382;53.242;10.438;2023-04-16T11:51:19;16.67;;;10.70;;
18505;SDS011;9382;53.242;10.438;2023-04-16T11:53:47;18.27;;;9.80;;
18505;SDS011;9382;53.242;10.438;2023-04-16T11:56:15;16.40;;;9.70;;
18505;SDS011;9382;53.242;10.438;2023-04-16T11:59:04;17.50;;;9.63;;
18505;SDS011;9382;53.242;10.438;2023-04-16T12:01:33;16.13;;;9.63;;
18505;SDS011;9382;53.242;10.438;2023-04-16T12:04:01;14.33;;;9.63;;
18505;SDS011;9382;53.242;10.438;2023-04-16T12:06:28;16.30;;;9.33;;
18505;SDS011;9382;53.242;10.438;2023-04-16T12:08:56;12.20;;;9.10;;
18505;SDS011;9382;53.242;10.438;2023-04-16T12:11:36;15.03;;;8.90;;
18505;SDS011;9382;53.242;10.438;2023-04-16T12:14:06;12.90;;;9.03;;
18505;SDS011;9382;53.242;10.438;2023-04-16T12:16:34;14.77;;;9.20;;
18505;SDS011;9382;53.242;10.438;2023-04-16T12:19:01;12.10;;;8.60;;
18505;SDS011;9382;53.242;10.438;2023-04-16T12:21:36;10.80;;;7.87;;
18505;SDS011;9382;53.242;10.438;2023-04-16T12:24:03;12.57;;;7.77;;
18505;SDS011;9382;53.242;10.438;2023-04-16T12:26:37;11.20;;;7.93;;
18505;SDS011;9382;53.242;10.438;2023-04-16T12:29:15;11.03;;;7.47;;
18505;SDS011;9382;53.242;10.438;2023-04-16T12:31:44;10.60;;;7.40;;
18505;SDS011;9382;53.242;10.438;2023-04-16T12:34:11;8.80;;;7.23;;
18505;SDS011;9382;53.242;10.438;2023-04-16T12:36:39;9.07;;;7.60;;
18505;SDS011;9382;53.242;10.438;2023-04-16T12:39:06;10.33;;;7.37;;
18505;SDS011;9382;53.242;10.438;2023-04-16T12:41:35;10.53;;;7.53;;
18505;SDS011;9382;53.242;10.438;2023-04-16T12:44:03;8.53;;;7.27;;
18505;SDS011;9382;53.242;10.438;2023-04-16T12:46:33;12.47;;;8.47;;
18505;SDS011;9382;53.242;10.438;2023-04-16T12:49:01;11.63;;;8.47;;
18505;SDS011;9382;53.242;10.438;2023-04-16T12:51:28;12.00;;;8.13;;
18505;SDS011;9382;53.242;10.438;2023-04-16T12:53:55;11.53;;;8.63;;
18505;SDS011;9382;53.242;10.438;2023-04-16T12:56:22;12.43;;;8.30;;
18505;SDS011;9382;53.242;10.438;2023-04-16T12:58:48;13.47;;;8.80;;
18505;SDS011;9382;53.242;10.438;2023-04-16T13:01:16;12.87;;;9.10;;
18505;SDS011;9382;53.242;10.438;2023-04-16T13:03:43;15.13;;;9.57;;
18505;SDS011;9382;53.242;10.438;2023-04-16T13:06:11;14.57;;;10.03;;
18505;SDS011;9382;53.242;10.438;2023-04-16T13:08:38;16.17;;;10.20;;
18505;SDS011;9382;53.242;10.438;2023-04-16T13:11:05;16.77;;;10.40;;
18505;SDS011;9382;53.242;10.438;2023-04-16T13:13:33;15.03;;;9.70;;
18505;SDS011;9382;53.242;10.438;2023-04-16T13:16:00;16.67;;;10.80;;
18505;SDS011;9382;53.242;10.438;2023-04-16T13:18:30;19.50;;;11.47;;
18505;SDS011;9382;53.242;10.438;2023-04-16T13:20:57;16.83;;;10.27;;
18505;SDS011;9382;53.242;10.438;2023-04-16T13:23:26;17.63;;;10.97;;
18505;SDS011;9382;53.242;10.438;2023-04-16T13:25:52;18.43;;;11.07;;
18505;SDS011;9382;53.242;10.438;2023-04-16T13:28:19;19.60;;;10.73;;
18505;SDS011;9382;53.242;10.438;2023-04-16T13:30:46;16.47;;;10.37;;
18505;SDS011;9382;53.242;10.438;2023-04-16T13:33:13;18.37;;;10.93;;
18505;SDS011;9382;53.242;10.438;2023-04-16T13:35:39;16.93;;;10.87;;
18505;SDS011;9382;53.242;10.438;2023-04-16T13:38:06;17.70;;;9.93;;
18505;SDS011;9382;53.242;10.438;2023-04-16T13:40:34;15.20;;;10.23;;
18505;SDS011;9382;53.242;10.438;2023-04-16T13:43:01;16.83;;;9.90;;
18505;SDS011;9382;53.242;10.438;2023-04-16T13:45:28;14.97;;;9.47;;
18505;SDS011;9382;53.242;10.438;2023-04-16T13:47:54;18.40;;;10.03;;
18505;SDS011;9382;53.242;10.438;2023-04-16T13:50:21;14.93;;;9.87;;
18505;SDS011;9382;53.242;10.438;2023-04-16T13:52:48;13.43;;;8.63;;
18505;SDS011;9382;53.242;10.438;2023-04-16T13:55:15;15.53;;;9.60;;
18505;SDS011;9382;53.242;10.438;2023-04-16T13:57:44;13.60;;;8.67;;
18505;SDS011;9382;53.242;10.438;2023-04-16T14:00:12;14.20;;;8.60;;
18505;SDS011;9382;53.242;10.438;2023-04-16T14:02:40;16.20;;;8.57;;
18505;SDS011;9382;53.242;10.438;2023-04-16T14:05:07;11.30;;;7.87;;
18505;SDS011;9382;53.242;10.438;2023-04-16T14:07:34;14.03;;;8.73;;
18505;SDS011;9382;53.242;10.438;2023-04-16T14:10:02;16.13;;;8.70;;
18505;SDS011;9382;53.242;10.438;2023-04-16T14:12:29;12.70;;;8.80;;
18505;SDS011;9382;53.242;10.438;2023-04-16T14:14:57;16.23;;;8.37;;
18505;SDS011;9382;53.242;10.438;2023-04-16T14:17:25;15.73;;;8.90;;
18505;SDS011;9382;53.242;10.438;2023-04-16T14:19:52;13.37;;;9.03;;
18505;SDS011;9382;53.242;10.438;2023-04-16T14:22:19;13.93;;;8.10;;
18505;SDS011;9382;53.242;10.438;2023-04-16T14:24:46;15.00;;;8.70;;
18505;SDS011;9382;53.242;10.438;2023-04-16T14:27:12;14.87;;;8.80;;
18505;SDS011;9382;53.242;10.438;2023-04-16T14:29:40;13.10;;;8.67;;